KPVG

Details ICAO KPVG
Name HAMPTON ROADS EXECUTIVE
Region United States
Timezone America/New_York (UTC-5.0)
Plans Departing 14
Arriving 14
Stats Elevation 23 ft / 7 m (AMSL)
Location 36.780253° -76.448946°
Runways 2
Magnetic Variation 10.745° W
Sunrise 2017-12-11 12:09:58 UTC / 2017-12-11 07:09:58 Local
Sunset 2017-12-11 21:51:15 UTC / 2017-12-11 16:51:15 Local
Advertisement - Login to hide

Runways

ID Width Length Bearing (true) Bearing (mag) Surface Threshold Offset Overrun Length
02 69 ft / 21 m 2,580 ft / 786 m 8.67° 19.41° Asphalt 177 ft / 54 m 509 ft / 155 m
10 69 ft / 21 m 3,912 ft / 1,192 m 92.41° 103.15° Asphalt 0 ft / 0 m 0 ft / 0 m
20 69 ft / 21 m 2,580 ft / 786 m 188.67° 199.41° Asphalt 177 ft / 54 m 446 ft / 136 m
28 69 ft / 21 m 3,912 ft / 1,192 m 272.42° 283.16° Asphalt 59 ft / 18 m 135 ft / 41 m

Map

Weather


0- 5 10 15 20 25 30 35+ Temperature / ° C

Clouds and Precipitation
Forecast for 2017-12-11 12:00 UTC. Updated 2 hours ago

Ground ~20,000 ft ~40,000 ft Winds

METAR

KPVG 111056Z 24004KT 10SM CLR M01/M03 A3010 RMK AO2 SLP194 T10111033 FZRANO

TAF

Not found

Frequencies

Recorded 118.37 MHz AWOS 3
Approach 118.90 MHz NORFOLK APP/DEP
Unicom 123.00 MHz CTAF/UNICOM
Warning: Do not use this data for real-world aviation or navigation. No guarantee of current accuracy is given.